MHU weather

Mount Hotham Airport
Mount Hotham, Victoria, Australia

Public forecast

Using degrees Celsius for public forecast. Weather courtesy of forecast.io.

METAR (pilot weather report)

Closest report is Albury Airport, 61.6 nm (114.0 km) NNW. Retrieved 2019/03/23 10:00 UTC (33 minutes ago):

YMAY 231000Z AUTO 00000KT 9999 // OVC100 22/17 Q1010

TAF (pilot weather forecast)

Forecast is more than 6 hours old.

Closest forecast is Wangaratta Airport, 62.3 nm (115.4 km) NW. Retrieved 2019/03/23 02:03 UTC (9 hours ago):

TAF YWGT 230059Z 2302/2314 06012KT CAVOK